createdAt,value
2023-05-23T00:00:08.123Z,101499.03
2023-05-23T00:02:36.149Z,101488.41
2023-05-23T00:05:07.360Z,101490.41
2023-05-23T00:07:35.621Z,101484.00
2023-05-23T00:10:03.707Z,101491.44
2023-05-23T00:12:32.074Z,101494.06
2023-05-23T00:15:00.174Z,101491.97
2023-05-23T00:17:28.387Z,101491.75
2023-05-23T00:19:57.409Z,101494.31
2023-05-23T00:22:28.507Z,101491.63
2023-05-23T00:24:57.891Z,101488.81
2023-05-23T00:27:26.240Z,101499.50
2023-05-23T00:29:54.534Z,101483.75
2023-05-23T00:32:22.631Z,101494.22
2023-05-23T00:34:50.645Z,101495.06
2023-05-23T00:37:18.965Z,101498.66
2023-05-23T00:39:49.374Z,101497.09
2023-05-23T00:42:18.015Z,101501.00
2023-05-23T00:44:48.590Z,101499.09
2023-05-23T00:47:16.950Z,101508.75
2023-05-23T00:49:45.639Z,101502.28
2023-05-23T00:52:14.173Z,101499.50
2023-05-23T00:54:42.709Z,101501.91
2023-05-23T00:57:12.640Z,101498.97
2023-05-23T00:59:41.672Z,101507.03
2023-05-23T01:02:11.855Z,101499.63
2023-05-23T01:04:40.555Z,101503.38
2023-05-23T01:07:10.408Z,101499.00
2023-05-23T01:09:39.012Z,101505.28
2023-05-23T01:12:27.179Z,101497.31
2023-05-23T01:15:05.269Z,101495.09
2023-05-23T01:17:43.551Z,101491.31
2023-05-23T01:20:14.538Z,101493.91
2023-05-23T01:23:06.968Z,101490.03
2023-05-23T01:25:59.937Z,101500.09
2023-05-23T01:28:33.673Z,101496.31
2023-05-23T01:31:05.236Z,101500.78
2023-05-23T01:33:36.065Z,101495.19
2023-05-23T01:36:04.738Z,101496.84
2023-05-23T01:38:33.070Z,101503.19
2023-05-23T01:41:01.590Z,101496.81
2023-05-23T01:43:31.774Z,101502.47
2023-05-23T01:46:01.881Z,101503.28
2023-05-23T01:48:31.040Z,101512.25
2023-05-23T01:51:00.147Z,101509.44
2023-05-23T01:53:28.908Z,101510.25
2023-05-23T01:55:57.289Z,101513.03
2023-05-23T01:58:26.082Z,101509.44
2023-05-23T02:00:56.199Z,101517.72
2023-05-23T02:03:24.741Z,101523.03
2023-05-23T02:05:53.191Z,101519.03
2023-05-23T02:08:21.759Z,101526.22
2023-05-23T02:10:49.910Z,101530.69
2023-05-23T02:13:18.169Z,101520.81
2023-05-23T02:15:46.496Z,101528.13
2023-05-23T02:18:16.377Z,101512.88
2023-05-23T02:20:44.525Z,101522.81
2023-05-23T02:23:12.930Z,101521.91
2023-05-23T02:25:41.330Z,101534.50
2023-05-23T02:28:12.480Z,101528.13
2023-05-23T02:30:40.636Z,101528.72
2023-05-23T02:33:09.503Z,101529.59
2023-05-23T02:35:39.641Z,101538.69
2023-05-23T02:38:07.809Z,101527.09
2023-05-23T02:40:36.092Z,101530.88
2023-05-23T02:43:04.025Z,101533.72
2023-05-23T02:45:32.313Z,101540.09
2023-05-23T02:48:00.360Z,101537.69
2023-05-23T02:50:28.608Z,101535.06
2023-05-23T02:52:58.197Z,101546.41
2023-05-23T02:55:26.500Z,101541.84
2023-05-23T02:57:54.426Z,101549.03
2023-05-23T03:00:22.716Z,101546.50
2023-05-23T03:02:50.716Z,101550.03
2023-05-23T03:05:19.937Z,101540.94
2023-05-23T03:07:48.063Z,101551.78
2023-05-23T03:10:19.338Z,101556.47
2023-05-23T03:12:47.597Z,101550.09
2023-05-23T03:15:15.554Z,101561.88
2023-05-23T03:17:44.043Z,101560.31
2023-05-23T03:20:12.698Z,101562.91
2023-05-23T03:22:43.583Z,101571.38
2023-05-23T03:25:11.620Z,101566.81
2023-05-23T03:27:44.087Z,101567.72
2023-05-23T03:30:12.226Z,101567.47
2023-05-23T03:32:40.211Z,101574.59
2023-05-23T03:35:09.075Z,101576.63
2023-05-23T03:37:37.083Z,101588.34
2023-05-23T03:40:07.159Z,101583.69
2023-05-23T03:42:36.447Z,101590.91
2023-05-23T03:45:07.395Z,101587.31
2023-05-23T03:47:35.920Z,101582.94
2023-05-23T03:50:03.968Z,101582.81
2023-05-23T03:52:32.229Z,101584.09
2023-05-23T03:55:00.044Z,101584.84
2023-05-23T03:57:28.124Z,101579.56
2023-05-23T03:59:56.014Z,101594.59
2023-05-23T04:02:25.649Z,101600.75
2023-05-23T04:04:54.334Z,101602.72
2023-05-23T04:07:22.935Z,101601.03
2023-05-23T04:09:51.043Z,101613.50
2023-05-23T04:12:19.398Z,101601.75
2023-05-23T04:14:48.599Z,101599.88
2023-05-23T04:17:16.681Z,101609.09
2023-05-23T04:19:46.076Z,101623.38
2023-05-23T04:22:14.009Z,101616.19
2023-05-23T04:24:42.101Z,101610.00
2023-05-23T04:27:10.266Z,101620.22
2023-05-23T04:29:38.501Z,101626.63
2023-05-23T04:32:06.855Z,101624.84
2023-05-23T04:34:36.318Z,101627.34
2023-05-23T04:37:07.246Z,101632.66
2023-05-23T04:39:37.751Z,101631.00
2023-05-23T04:42:07.440Z,101640.72
2023-05-23T04:44:37.682Z,101641.13
2023-05-23T04:47:09.062Z,101631.16
2023-05-23T04:49:39.974Z,101638.25
2023-05-23T04:52:09.542Z,101636.47
2023-05-23T04:54:45.095Z,101638.16
2023-05-23T04:57:13.474Z,101638.13
2023-05-23T04:59:42.807Z,101639.75
2023-05-23T05:02:11.140Z,101639.91
2023-05-23T05:04:39.053Z,101643.50
2023-05-23T05:07:07.859Z,101640.22
2023-05-23T05:09:37.561Z,101657.41
2023-05-23T05:12:05.791Z,101653.84
2023-05-23T05:14:33.972Z,101662.78
2023-05-23T05:17:03.057Z,101660.13
2023-05-23T05:19:31.942Z,101659.91
2023-05-23T05:22:00.504Z,101651.72
2023-05-23T05:24:31.529Z,101651.94
2023-05-23T05:27:01.756Z,101667.94
2023-05-23T05:29:30.226Z,101652.81
2023-05-23T05:31:58.313Z,101655.44
2023-05-23T05:34:27.062Z,101663.78
2023-05-23T05:36:56.695Z,101667.25
2023-05-23T05:39:27.463Z,101670.81
2023-05-23T05:41:56.439Z,101685.94
2023-05-23T05:44:27.271Z,101672.50
2023-05-23T05:46:56.046Z,101684.81
2023-05-23T05:49:24.538Z,101683.94
2023-05-23T05:51:54.659Z,101686.69
2023-05-23T05:54:23.238Z,101691.22
2023-05-23T05:56:51.355Z,101686.66
2023-05-23T05:59:19.683Z,101691.34
2023-05-23T06:01:51.566Z,101700.13
2023-05-23T06:04:20.498Z,101700.84
2023-05-23T06:06:48.831Z,101693.47
2023-05-23T06:09:16.795Z,101697.06
2023-05-23T06:11:44.802Z,101694.09
2023-05-23T06:14:12.717Z,101696.50
2023-05-23T06:16:41.402Z,101695.56
2023-05-23T06:19:11.158Z,101698.22
2023-05-23T06:21:39.789Z,101701.00
2023-05-23T06:24:08.173Z,101710.88
2023-05-23T06:26:38.266Z,101710.13
2023-05-23T06:29:06.878Z,101711.94
2023-05-23T06:31:36.433Z,101718.28
2023-05-23T06:34:04.668Z,101721.34
2023-05-23T06:36:43.172Z,101721.41
2023-05-23T06:39:12.683Z,101721.47
2023-05-23T06:41:41.360Z,101725.81
2023-05-23T06:44:10.513Z,101724.16
2023-05-23T06:46:40.546Z,101720.66
2023-05-23T06:49:14.842Z,101729.50
2023-05-23T06:51:54.650Z,101724.03
2023-05-23T06:54:56.430Z,101728.13
2023-05-23T06:57:50.279Z,101736.16
2023-05-23T07:00:19.644Z,101746.16
2023-05-23T07:02:48.933Z,101745.53
2023-05-23T07:05:17.697Z,101753.09
2023-05-23T07:07:47.901Z,101747.88
2023-05-23T07:10:26.452Z,101764.81
2023-05-23T07:12:54.553Z,101763.09
2023-05-23T07:15:22.668Z,101768.47
2023-05-23T07:17:50.967Z,101768.78
2023-05-23T07:20:19.171Z,101788.44
2023-05-23T07:22:48.886Z,101773.31
2023-05-23T07:25:17.083Z,101782.28
2023-05-23T07:27:45.892Z,101783.13
2023-05-23T07:30:15.157Z,101785.53
2023-05-23T07:32:43.939Z,101792.84
2023-05-23T07:35:26.930Z,101796.63
2023-05-23T07:37:58.124Z,101793.97
2023-05-23T07:40:26.561Z,101798.31
2023-05-23T07:42:55.904Z,101815.50
2023-05-23T07:45:24.383Z,101806.22
2023-05-23T07:47:53.200Z,101817.09
2023-05-23T07:50:21.866Z,101818.03
2023-05-23T07:52:51.837Z,101826.19
2023-05-23T07:55:21.734Z,101820.69
2023-05-23T07:57:50.289Z,101821.63
2023-05-23T08:00:19.376Z,101822.56
2023-05-23T08:02:47.537Z,101827.97
2023-05-23T08:05:16.109Z,101833.28
2023-05-23T08:07:44.220Z,101836.94
2023-05-23T08:10:12.761Z,101837.88
2023-05-23T08:12:42.625Z,101842.53
2023-05-23T08:15:12.015Z,101846.06
2023-05-23T08:17:41.362Z,101841.50
2023-05-23T08:20:12.633Z,101845.97
2023-05-23T08:22:44.525Z,101844.09
2023-05-23T08:25:13.247Z,101844.09
2023-05-23T08:27:43.180Z,101848.47
2023-05-23T08:30:12.944Z,101856.53
2023-05-23T08:32:41.072Z,101850.25
2023-05-23T08:35:10.105Z,101860.13
2023-05-23T08:37:42.109Z,101858.28
2023-05-23T08:40:16.918Z,101863.81
2023-05-23T08:42:47.340Z,101873.69
2023-05-23T08:45:15.876Z,101872.91
2023-05-23T08:47:45.184Z,101870.16
2023-05-23T08:50:14.777Z,101878.25
2023-05-23T08:52:49.215Z,101886.56
2023-05-23T08:55:18.867Z,101888.44
2023-05-23T08:57:57.848Z,101886.72
2023-05-23T09:00:27.130Z,101889.19
2023-05-23T09:02:55.685Z,101884.66
2023-05-23T09:05:23.924Z,101898.09
2023-05-23T09:07:52.440Z,101891.75
2023-05-23T09:10:21.133Z,101897.09
2023-05-23T09:12:50.841Z,101907.03
2023-05-23T09:15:19.110Z,101894.50
2023-05-23T09:17:47.152Z,101894.41
2023-05-23T09:20:16.767Z,101906.16
2023-05-23T09:22:47.550Z,101910.78
2023-05-23T09:25:15.925Z,101909.06
2023-05-23T09:27:46.858Z,101918.13
2023-05-23T09:30:19.508Z,101918.88
2023-05-23T09:33:05.445Z,101922.53
2023-05-23T09:35:33.965Z,101921.50
2023-05-23T09:38:01.867Z,101922.31
2023-05-23T09:40:33.728Z,101929.47
2023-05-23T09:43:05.211Z,101929.56
2023-05-23T09:45:35.624Z,101924.13
2023-05-23T09:48:03.836Z,101921.22
2023-05-23T09:50:38.516Z,101918.41
2023-05-23T09:53:06.759Z,101919.75
2023-05-23T09:55:34.746Z,101914.19
2023-05-23T09:58:04.156Z,101919.34
2023-05-23T10:00:35.091Z,101919.94
2023-05-23T10:03:14.895Z,101928.72
2023-05-23T10:05:46.314Z,101916.81
2023-05-23T10:08:17.508Z,101905.44
2023-05-23T10:11:31.318Z,101906.88
2023-05-23T10:14:02.751Z,101914.34
2023-05-23T10:16:39.986Z,101911.34
2023-05-23T10:19:12.217Z,101918.59
2023-05-23T10:21:46.858Z,101913.31
2023-05-23T10:24:15.506Z,101914.94
2023-05-23T10:26:46.339Z,101912.28
2023-05-23T10:29:14.422Z,101920.34
2023-05-23T10:31:44.890Z,101916.44
2023-05-23T10:34:20.080Z,101925.22
2023-05-23T10:36:57.440Z,101926.94
2023-05-23T10:39:34.947Z,101927.88
2023-05-23T10:42:08.657Z,101925.44
2023-05-23T10:44:38.451Z,101926.50
2023-05-23T10:47:09.115Z,101936.22
2023-05-23T10:49:42.097Z,101920.03
2023-05-23T10:52:11.228Z,101934.72
2023-05-23T10:54:44.050Z,101941.81
2023-05-23T10:57:13.451Z,101933.03
2023-05-23T10:59:42.528Z,101945.38
2023-05-23T11:02:15.874Z,101942.47
2023-05-23T11:04:44.388Z,101941.28
2023-05-23T11:07:39.436Z,101941.88
2023-05-23T11:10:11.707Z,101943.09
2023-05-23T11:12:41.356Z,101950.16
2023-05-23T11:15:52.713Z,101951.13
2023-05-23T11:18:29.022Z,101951.03
2023-05-23T11:20:59.918Z,101946.81
2023-05-23T11:23:42.021Z,101955.28
2023-05-23T11:26:30.918Z,101955.16
2023-05-23T11:28:59.464Z,101948.00
2023-05-23T11:31:28.193Z,101952.31
2023-05-23T11:33:57.756Z,101959.28
2023-05-23T11:36:26.051Z,101953.19
2023-05-23T11:38:54.154Z,101958.44
2023-05-23T11:41:22.175Z,101960.84
2023-05-23T11:43:53.212Z,101956.88
2023-05-23T11:46:21.650Z,101962.56
2023-05-23T11:48:51.322Z,101960.84
2023-05-23T11:51:21.899Z,101961.66
2023-05-23T11:53:50.596Z,101959.22
2023-05-23T11:56:18.768Z,101957.84
2023-05-23T11:58:52.054Z,101944.78
2023-05-23T12:01:20.336Z,101949.13
2023-05-23T12:03:51.583Z,101957.25
2023-05-23T12:06:24.613Z,101958.34
2023-05-23T12:08:54.342Z,101947.72
2023-05-23T12:11:26.512Z,101952.84
2023-05-23T12:13:55.196Z,101957.31
2023-05-23T12:16:23.638Z,101957.50
2023-05-23T12:18:55.391Z,101961.53
2023-05-23T12:21:27.537Z,101955.38
2023-05-23T12:23:56.531Z,101963.88
2023-05-23T12:26:24.900Z,101948.31
2023-05-23T12:28:53.037Z,101953.47
2023-05-23T12:31:24.296Z,101959.09
2023-05-23T12:33:55.190Z,101954.97
2023-05-23T12:36:31.925Z,101959.75
2023-05-23T12:39:05.649Z,101956.84
2023-05-23T12:41:35.230Z,101959.25
2023-05-23T12:44:04.973Z,101948.78
2023-05-23T12:46:34.555Z,101950.34
2023-05-23T12:49:03.221Z,101951.88
2023-05-23T12:51:37.136Z,101951.28
2023-05-23T12:54:06.809Z,101952.84
2023-05-23T12:56:34.996Z,101956.09
2023-05-23T12:59:04.513Z,101959.88
2023-05-23T13:01:34.651Z,101952.31
2023-05-23T13:04:02.718Z,101948.03
2023-05-23T13:06:33.418Z,101953.88
2023-05-23T13:09:06.336Z,101947.16
2023-05-23T13:11:34.645Z,101943.94
2023-05-23T13:14:02.832Z,101950.06
2023-05-23T13:16:31.182Z,101949.09
2023-05-23T13:19:00.305Z,101950.19
2023-05-23T13:21:29.232Z,101946.00
2023-05-23T13:23:59.421Z,101938.06
2023-05-23T13:26:27.940Z,101944.09
2023-05-23T13:28:56.492Z,101936.31
2023-05-23T13:31:24.984Z,101941.75
2023-05-23T13:33:53.428Z,101943.56
2023-05-23T13:36:23.898Z,101948.47
2023-05-23T13:38:52.256Z,101951.19
2023-05-23T13:41:22.117Z,101951.63
2023-05-23T13:43:50.668Z,101952.09
2023-05-23T13:46:18.786Z,101958.16
2023-05-23T13:48:47.287Z,101953.69
2023-05-23T13:51:15.659Z,101951.59
2023-05-23T13:53:44.601Z,101962.56
2023-05-23T13:56:12.884Z,101952.81
2023-05-23T13:58:43.028Z,101956.19
2023-05-23T14:01:11.109Z,101957.34
2023-05-23T14:03:39.753Z,101962.91
2023-05-23T14:06:12.565Z,101961.78
2023-05-23T14:08:41.372Z,101949.69
2023-05-23T14:11:13.910Z,101956.53
2023-05-23T14:13:45.074Z,101946.66
2023-05-23T14:16:15.189Z,101951.22
2023-05-23T14:18:43.437Z,101950.31
2023-05-23T14:21:12.035Z,101950.72
2023-05-23T14:23:40.388Z,101947.22
2023-05-23T14:26:09.117Z,101949.94
2023-05-23T14:28:39.839Z,101948.66
2023-05-23T14:31:10.247Z,101940.88
2023-05-23T14:33:39.443Z,101949.72
2023-05-23T14:36:08.666Z,101959.38
2023-05-23T14:38:40.123Z,101959.09
2023-05-23T14:41:08.584Z,101965.44
2023-05-23T14:43:37.555Z,101960.63
2023-05-23T14:46:10.231Z,101964.19
2023-05-23T14:48:41.982Z,101965.75
2023-05-23T14:51:11.263Z,101971.25
2023-05-23T14:53:40.349Z,101956.94
2023-05-23T14:56:18.386Z,101964.34
2023-05-23T14:58:48.157Z,101958.75
2023-05-23T15:01:18.765Z,101956.22
2023-05-23T15:03:47.463Z,101957.91
2023-05-23T15:06:19.986Z,101962.63
2023-05-23T15:08:52.126Z,101962.44
2023-05-23T15:11:20.594Z,101961.34
2023-05-23T15:13:52.155Z,101961.00
2023-05-23T15:16:24.957Z,101962.91
2023-05-23T15:18:54.782Z,101956.38
2023-05-23T15:21:50.936Z,101962.53
2023-05-23T15:24:28.363Z,101962.38
2023-05-23T15:27:08.175Z,101963.59
2023-05-23T15:29:47.355Z,101965.78
2023-05-23T15:32:18.413Z,101965.59
2023-05-23T15:34:47.064Z,101956.28
2023-05-23T15:37:15.315Z,101968.06
2023-05-23T15:39:56.219Z,101976.38
2023-05-23T15:42:24.712Z,101971.00
2023-05-23T15:44:52.823Z,101957.88
2023-05-23T15:47:22.541Z,101967.88
2023-05-23T15:50:00.759Z,101959.91
2023-05-23T15:52:39.606Z,101957.41
2023-05-23T15:55:12.783Z,101961.59
2023-05-23T15:59:05.706Z,101963.41
2023-05-23T16:01:33.378Z,101967.88
2023-05-23T16:04:37.401Z,101973.19
2023-05-23T16:07:34.618Z,101963.41
2023-05-23T16:10:50.657Z,101949.16
2023-05-23T16:13:31.706Z,101972.88
2023-05-23T16:16:00.256Z,101968.50
2023-05-23T16:18:58.359Z,101957.47
2023-05-23T16:21:32.581Z,101973.66
2023-05-23T16:24:10.520Z,101961.16
2023-05-23T16:29:57.017Z,101972.09
2023-05-23T16:56:19.991Z,101972.72
2023-05-23T16:58:50.600Z,101972.75
2023-05-23T17:05:33.008Z,101974.63
2023-05-23T17:08:57.059Z,101971.06
2023-05-23T17:11:32.796Z,101973.88
2023-05-23T17:17:51.641Z,101980.91
2023-05-23T17:20:46.465Z,101982.63
2023-05-23T17:27:32.999Z,101972.72
2023-05-23T17:30:59.586Z,101975.44
2023-05-23T17:34:07.541Z,101980.81
2023-05-23T17:37:04.607Z,101983.72
2023-05-23T17:39:58.816Z,101981.91
2023-05-23T17:42:32.373Z,101970.25
2023-05-23T17:45:05.148Z,101979.38
2023-05-23T17:47:50.487Z,101979.44
2023-05-23T17:53:15.595Z,101994.97
2023-05-23T17:55:44.566Z,101991.38
2023-05-23T17:58:13.139Z,101995.22
2023-05-23T18:00:41.681Z,101990.00
2023-05-23T18:03:12.361Z,102002.53
2023-05-23T18:05:40.544Z,101996.31
2023-05-23T18:08:08.836Z,101999.22
2023-05-23T18:10:40.536Z,101993.81
2023-05-23T18:13:09.389Z,101997.41
2023-05-23T18:15:50.987Z,102004.66
2023-05-23T18:18:21.261Z,102005.75
2023-05-23T18:20:49.290Z,101998.63
2023-05-23T18:23:17.687Z,102001.34
2023-05-23T18:25:45.759Z,102001.31
2023-05-23T18:28:14.021Z,102008.59
2023-05-23T18:30:42.039Z,102002.44
2023-05-23T18:33:10.195Z,102005.06
2023-05-23T18:35:40.069Z,102003.19
2023-05-23T18:38:08.396Z,102004.88
2023-05-23T18:40:38.293Z,102014.06
2023-05-23T18:43:09.048Z,102014.91
2023-05-23T18:45:42.827Z,102014.91
2023-05-23T18:48:11.224Z,102017.56
2023-05-23T18:50:41.080Z,102024.09
2023-05-23T18:53:09.393Z,102029.53
2023-05-23T18:56:01.224Z,102028.69
2023-05-23T18:58:33.615Z,102035.78
2023-05-23T19:01:04.062Z,102041.31
2023-05-23T19:03:33.638Z,102036.88
2023-05-23T19:06:07.132Z,102046.84
2023-05-23T19:08:53.786Z,102047.72
2023-05-23T19:11:24.857Z,102060.31
2023-05-23T19:13:53.024Z,102055.81
2023-05-23T19:16:21.726Z,102064.97
2023-05-23T19:18:50.148Z,102055.19
2023-05-23T19:21:21.072Z,102068.66
2023-05-23T19:23:49.529Z,102066.03
2023-05-23T19:26:19.250Z,102068.78
2023-05-23T19:28:54.562Z,102070.66
2023-05-23T19:31:23.270Z,102080.53
2023-05-23T19:33:53.556Z,102082.31
2023-05-23T19:36:40.351Z,102087.66
2023-05-23T19:39:08.832Z,102084.97
2023-05-23T19:41:40.101Z,102093.06
2023-05-23T19:44:08.320Z,102097.56
2023-05-23T19:46:38.230Z,102094.03
2023-05-23T19:49:09.567Z,102102.09
2023-05-23T19:51:39.327Z,102103.00
2023-05-23T19:54:09.519Z,102100.31
2023-05-23T19:56:41.628Z,102111.09
2023-05-23T19:59:15.036Z,102122.75
2023-05-23T20:01:44.169Z,102116.50
2023-05-23T20:04:16.074Z,102119.19
2023-05-23T20:09:42.754Z,102113.84
2023-05-23T20:12:11.110Z,102127.28
2023-05-23T20:14:47.316Z,102134.47
2023-05-23T20:17:15.698Z,102138.03
2023-05-23T20:20:06.599Z,102140.75
2023-05-23T20:22:38.480Z,102155.97
2023-05-23T20:25:20.519Z,102151.50
2023-05-23T20:27:50.660Z,102154.19
2023-05-23T20:30:25.448Z,102154.19
2023-05-23T20:32:55.115Z,102156.84
2023-05-23T20:35:23.831Z,102155.97
2023-05-23T20:37:58.647Z,102160.44
2023-05-23T20:40:29.726Z,102170.28
2023-05-23T20:43:04.518Z,102166.69
2023-05-23T20:45:33.742Z,102171.19
2023-05-23T20:48:47.844Z,102165.78
2023-05-23T20:51:22.896Z,102171.13
2023-05-23T20:53:54.959Z,102167.47
2023-05-23T20:56:25.136Z,102180.00
2023-05-23T20:58:54.429Z,102184.44
2023-05-23T21:01:23.726Z,102180.88
2023-05-23T21:03:54.019Z,102180.88
2023-05-23T21:06:22.588Z,102188.94
2023-05-23T21:08:53.093Z,102183.56
2023-05-23T21:11:23.296Z,102188.00
2023-05-23T21:13:51.590Z,102185.38
2023-05-23T21:16:19.838Z,102180.81
2023-05-23T21:18:48.295Z,102186.09
2023-05-23T21:21:22.062Z,102181.69
2023-05-23T21:23:52.224Z,102180.78
2023-05-23T21:26:22.454Z,102187.03
2023-05-23T21:28:54.689Z,102189.72
2023-05-23T21:31:33.154Z,102184.34
2023-05-23T21:34:23.378Z,102182.56
2023-05-23T21:36:52.317Z,102199.50
2023-05-23T21:39:20.708Z,102194.16
2023-05-23T21:41:51.000Z,102191.41
2023-05-23T21:44:25.465Z,102186.91
2023-05-23T21:46:53.914Z,102181.50
2023-05-23T21:49:23.286Z,102181.50
2023-05-23T21:51:51.563Z,102183.28
2023-05-23T21:54:20.086Z,102182.31
2023-05-23T21:56:48.357Z,102187.66
2023-05-23T21:59:16.714Z,102192.09
2023-05-23T22:01:46.479Z,102187.66
2023-05-23T22:04:14.800Z,102185.00
2023-05-23T22:06:43.123Z,102191.25
2023-05-23T22:09:11.821Z,102185.91
2023-05-23T22:11:40.164Z,102183.22
2023-05-23T22:14:08.614Z,102186.72
2023-05-23T22:16:39.542Z,102186.69
2023-05-23T22:19:10.395Z,102190.28
2023-05-23T22:21:41.938Z,102188.50
2023-05-23T22:24:10.191Z,102188.41
2023-05-23T22:26:39.573Z,102185.75
2023-05-23T22:29:07.966Z,102179.47
2023-05-23T22:31:38.981Z,102188.34
2023-05-23T22:34:10.872Z,102182.03
2023-05-23T22:36:39.196Z,102182.91
2023-05-23T22:39:14.289Z,102181.09
2023-05-23T22:41:42.585Z,102181.09
2023-05-23T22:44:10.814Z,102185.53
2023-05-23T22:46:40.060Z,102186.38
2023-05-23T22:49:10.355Z,102192.56
2023-05-23T22:51:44.837Z,102191.69
2023-05-23T22:54:13.194Z,102190.72
2023-05-23T22:56:42.908Z,102188.00
2023-05-23T22:59:11.227Z,102184.38
2023-05-23T23:01:39.629Z,102195.94
2023-05-23T23:04:15.199Z,102193.22
2023-05-23T23:06:45.395Z,102189.69
2023-05-23T23:09:18.086Z,102185.25
2023-05-23T23:11:46.344Z,102186.16
2023-05-23T23:14:14.634Z,102187.06
2023-05-23T23:16:43.564Z,102181.69
2023-05-23T23:19:13.669Z,102191.47
2023-05-23T23:21:44.096Z,102194.09
2023-05-23T23:24:13.950Z,102197.59
2023-05-23T23:26:42.061Z,102197.59
2023-05-23T23:29:12.489Z,102200.22
2023-05-23T23:31:40.819Z,102194.84
2023-05-23T23:34:08.928Z,102195.75
2023-05-23T23:36:40.182Z,102195.72
2023-05-23T23:39:10.111Z,102197.50
2023-05-23T23:41:41.285Z,102197.47
2023-05-23T23:44:09.685Z,102197.41
2023-05-23T23:46:43.589Z,102202.72
2023-05-23T23:49:11.822Z,102203.50
2023-05-23T23:51:41.593Z,102203.53
2023-05-23T23:54:10.379Z,102208.84
2023-05-23T23:56:41.617Z,102202.63
2023-05-23T23:59:09.757Z,102208.84
